createdAt,value
2018-05-23T00:01:11.159Z,99.90
2018-05-23T00:03:38.687Z,99.90
2018-05-23T00:06:06.994Z,99.90
2018-05-23T00:08:34.557Z,99.90
2018-05-23T00:11:02.228Z,99.90
2018-05-23T00:13:29.765Z,99.90
2018-05-23T00:15:57.336Z,99.90
2018-05-23T00:18:24.891Z,99.90
2018-05-23T00:20:52.457Z,99.90
2018-05-23T00:23:20.103Z,99.90
2018-05-23T00:25:47.625Z,99.90
2018-05-23T00:28:15.910Z,99.90
2018-05-23T00:30:44.339Z,99.90
2018-05-23T00:33:11.871Z,99.90
2018-05-23T00:35:39.549Z,99.90
2018-05-23T00:38:07.128Z,99.90
2018-05-23T00:40:34.655Z,99.90
2018-05-23T00:43:02.191Z,99.90
2018-05-23T00:45:29.775Z,99.90
2018-05-23T00:47:57.293Z,99.90
2018-05-23T00:50:25.576Z,99.90
2018-05-23T00:52:53.896Z,99.90
2018-05-23T00:55:33.101Z,99.90
2018-05-23T00:58:00.656Z,99.90
2018-05-23T01:00:28.175Z,99.90
2018-05-23T01:02:55.705Z,99.90
2018-05-23T01:05:23.255Z,99.90
2018-05-23T01:07:50.793Z,99.90
2018-05-23T01:10:21.665Z,99.90
2018-05-23T01:12:49.211Z,99.90
2018-05-23T01:15:16.751Z,99.90
2018-05-23T01:17:44.280Z,99.90
2018-05-23T01:20:12.592Z,99.90
2018-05-23T01:22:40.103Z,99.90
2018-05-23T01:25:07.642Z,99.90
2018-05-23T01:27:35.265Z,99.90
2018-05-23T01:30:02.782Z,99.90
2018-05-23T01:32:30.295Z,99.90
2018-05-23T01:34:57.862Z,99.90
2018-05-23T01:37:25.825Z,99.90
2018-05-23T01:39:53.382Z,99.90
2018-05-23T01:42:21.031Z,99.90
2018-05-23T01:44:48.545Z,99.90
2018-05-23T01:47:16.834Z,99.90
2018-05-23T01:49:45.176Z,99.90
2018-05-23T01:52:12.811Z,99.90
2018-05-23T01:54:40.353Z,99.90
2018-05-23T01:57:07.910Z,99.90
2018-05-23T01:59:35.475Z,99.90
2018-05-23T02:02:03.006Z,99.90
2018-05-23T02:04:31.330Z,99.90
2018-05-23T02:06:58.873Z,99.90
2018-05-23T02:09:26.402Z,99.90
2018-05-23T02:11:53.973Z,99.90
2018-05-23T02:14:21.510Z,99.90
2018-05-23T02:16:49.811Z,99.90
2018-05-23T02:19:17.378Z,99.90
2018-05-23T02:21:44.937Z,99.90
2018-05-23T02:24:12.467Z,99.90
2018-05-23T02:26:40.867Z,99.90
2018-05-23T02:29:08.458Z,99.90
2018-05-23T02:31:35.974Z,99.90
2018-05-23T02:34:03.516Z,99.90
2018-05-23T02:36:31.800Z,99.90
2018-05-23T02:39:00.081Z,99.90
2018-05-23T02:41:27.637Z,99.90
2018-05-23T02:43:55.261Z,99.90
2018-05-23T02:46:22.796Z,99.90
2018-05-23T02:48:50.355Z,99.90
2018-05-23T02:51:17.885Z,99.90
2018-05-23T02:53:45.435Z,99.90
2018-05-23T02:56:12.989Z,99.90
2018-05-23T02:58:40.520Z,99.90
2018-05-23T03:01:08.037Z,99.90
2018-05-23T03:03:35.593Z,99.90
2018-05-23T03:06:03.120Z,99.90
2018-05-23T03:08:30.897Z,99.90
2018-05-23T03:10:58.439Z,99.90
2018-05-23T03:13:26.735Z,99.90
2018-05-23T03:15:54.263Z,99.90
2018-05-23T03:18:22.583Z,99.90
2018-05-23T03:20:50.105Z,99.90
2018-05-23T03:23:18.412Z,99.90
2018-05-23T03:25:45.972Z,99.90
2018-05-23T03:28:13.493Z,99.90
2018-05-23T03:30:42.245Z,99.90
2018-05-23T03:33:09.797Z,99.90
2018-05-23T03:35:37.339Z,99.90
2018-05-23T03:38:04.903Z,99.90
2018-05-23T03:40:32.450Z,99.90
2018-05-23T03:42:59.992Z,99.90
2018-05-23T03:45:27.509Z,99.90
2018-05-23T03:47:56.582Z,99.90
2018-05-23T03:50:24.231Z,99.90
2018-05-23T03:52:51.791Z,99.90
2018-05-23T03:55:19.332Z,99.90
2018-05-23T03:57:46.916Z,99.90
2018-05-23T04:00:26.335Z,99.90
2018-05-23T04:03:05.692Z,99.90
2018-05-23T04:05:45.315Z,99.90
2018-05-23T04:08:13.660Z,99.90
2018-05-23T04:10:41.972Z,99.90
2018-05-23T04:13:09.525Z,99.90
2018-05-23T04:15:37.061Z,99.90
2018-05-23T04:18:04.663Z,99.90
2018-05-23T04:20:32.221Z,99.90
2018-05-23T04:22:59.755Z,99.90
2018-05-23T04:25:27.281Z,99.90
2018-05-23T04:27:55.614Z,99.90
2018-05-23T04:30:23.167Z,99.90
2018-05-23T04:32:50.708Z,99.90
2018-05-23T04:35:18.277Z,99.90
2018-05-23T04:37:45.827Z,99.90
2018-05-23T04:40:13.358Z,99.90
2018-05-23T04:42:40.915Z,99.90
2018-05-23T04:45:09.215Z,99.90
2018-05-23T04:47:36.730Z,99.90
2018-05-23T04:50:04.278Z,99.90
2018-05-23T04:52:31.799Z,99.90
2018-05-23T04:54:59.328Z,99.90
2018-05-23T04:57:27.740Z,99.90
2018-05-23T04:59:55.560Z,99.90
2018-05-23T05:02:23.868Z,99.90
2018-05-23T05:04:51.434Z,99.90
2018-05-23T05:07:18.975Z,99.90
2018-05-23T05:09:46.511Z,99.90
2018-05-23T05:12:14.852Z,99.90
2018-05-23T05:14:43.234Z,99.90
2018-05-23T05:17:10.784Z,99.90
2018-05-23T05:19:38.320Z,99.90
2018-05-23T05:22:05.862Z,99.90
2018-05-23T05:24:33.389Z,99.90
2018-05-23T05:27:00.932Z,99.90
2018-05-23T05:29:28.453Z,99.90
2018-05-23T05:31:55.983Z,99.90
2018-05-23T05:34:24.411Z,99.90
2018-05-23T05:36:51.945Z,99.90
2018-05-23T05:39:19.474Z,99.90
2018-05-23T05:41:47.871Z,99.90
2018-05-23T05:44:15.448Z,99.90
2018-05-23T05:46:42.965Z,99.90
2018-05-23T05:49:11.285Z,99.90
2018-05-23T05:51:39.164Z,99.90
2018-05-23T05:54:06.715Z,99.90
2018-05-23T05:56:34.345Z,99.90
2018-05-23T05:59:01.861Z,99.90
2018-05-23T06:01:29.506Z,99.90
2018-05-23T06:03:57.148Z,99.90
2018-05-23T06:06:24.683Z,99.90
2018-05-23T06:08:52.205Z,99.90
2018-05-23T06:11:19.828Z,99.90
2018-05-23T06:13:47.379Z,99.90
2018-05-23T06:16:14.904Z,99.90
2018-05-23T06:18:42.505Z,99.90
2018-05-23T06:21:10.040Z,99.90
2018-05-23T06:23:37.585Z,99.90
2018-05-23T06:26:05.185Z,99.90
2018-05-23T06:28:32.745Z,99.90
2018-05-23T06:31:00.296Z,99.90
2018-05-23T06:33:27.962Z,99.90
2018-05-23T06:35:55.509Z,99.90
2018-05-23T06:38:23.081Z,99.90
2018-05-23T06:40:50.729Z,99.90
2018-05-23T06:43:18.270Z,99.90
2018-05-23T06:45:45.817Z,99.90
2018-05-23T06:48:13.408Z,99.90
2018-05-23T06:50:40.958Z,99.90
2018-05-23T06:53:08.465Z,99.90
2018-05-23T06:55:36.045Z,99.90
2018-05-23T06:58:03.599Z,99.90
2018-05-23T07:00:31.891Z,99.90
2018-05-23T07:02:59.480Z,99.90
2018-05-23T07:05:27.005Z,99.90
2018-05-23T07:07:54.595Z,99.90
2018-05-23T07:10:22.137Z,99.90
2018-05-23T07:12:49.705Z,99.90
2018-05-23T07:15:17.221Z,99.90
2018-05-23T07:17:45.563Z,99.90
2018-05-23T07:20:13.112Z,99.90
2018-05-23T07:22:40.642Z,99.90
2018-05-23T07:25:08.503Z,99.90
2018-05-23T07:27:36.017Z,99.90
2018-05-23T07:30:03.541Z,99.90
2018-05-23T07:32:31.097Z,99.90
2018-05-23T07:34:58.613Z,99.90
2018-05-23T07:37:26.933Z,99.90
2018-05-23T07:39:54.494Z,99.90
2018-05-23T07:42:22.079Z,99.90
2018-05-23T07:44:49.616Z,99.90
2018-05-23T07:47:17.175Z,99.90
2018-05-23T07:49:44.740Z,99.90
2018-05-23T07:52:12.274Z,99.90
2018-05-23T07:54:39.841Z,99.90
2018-05-23T07:57:07.353Z,99.90
2018-05-23T07:59:35.612Z,99.90
2018-05-23T08:02:03.681Z,99.90
2018-05-23T08:04:31.308Z,99.90
2018-05-23T08:06:58.834Z,99.90
2018-05-23T08:09:27.136Z,99.90
2018-05-23T08:11:54.670Z,99.90
2018-05-23T08:14:22.991Z,99.90
2018-05-23T08:16:50.546Z,99.90
2018-05-23T08:19:18.077Z,99.90
2018-05-23T08:21:45.920Z,99.90
2018-05-23T08:24:14.258Z,99.90
2018-05-23T08:26:42.096Z,99.90
2018-05-23T08:29:09.654Z,99.90
2018-05-23T08:31:37.228Z,99.90
2018-05-23T08:34:04.786Z,99.90
2018-05-23T08:36:32.449Z,99.90
2018-05-23T08:38:59.941Z,99.90
2018-05-23T08:41:27.462Z,99.90
2018-05-23T08:43:54.996Z,99.90
2018-05-23T08:46:22.547Z,99.90
2018-05-23T08:48:50.121Z,99.90
2018-05-23T08:51:17.700Z,99.90
2018-05-23T08:53:45.259Z,99.90
2018-05-23T08:56:12.833Z,99.90
2018-05-23T08:58:40.462Z,99.90
2018-05-23T09:01:08.039Z,99.90
2018-05-23T09:03:35.572Z,99.90
2018-05-23T09:06:03.142Z,99.90
2018-05-23T09:08:31.684Z,99.90
2018-05-23T09:10:59.984Z,99.90
2018-05-23T09:13:27.571Z,99.90
2018-05-23T09:15:55.123Z,99.90
2018-05-23T09:18:22.633Z,99.90
2018-05-23T09:20:50.945Z,99.90
2018-05-23T09:23:18.522Z,99.90
2018-05-23T09:25:46.053Z,99.90
2018-05-23T09:28:13.629Z,99.90
2018-05-23T09:30:41.192Z,99.90
2018-05-23T09:33:08.765Z,99.90
2018-05-23T09:35:36.321Z,99.90
2018-05-23T09:38:03.880Z,99.90
2018-05-23T09:40:31.430Z,99.90
2018-05-23T09:42:58.951Z,99.90
2018-05-23T09:45:27.282Z,99.90
2018-05-23T09:47:54.823Z,99.90
2018-05-23T09:50:22.959Z,99.90
2018-05-23T09:52:51.369Z,99.90
2018-05-23T09:55:18.938Z,99.90
2018-05-23T09:57:46.464Z,99.90
2018-05-23T10:00:14.027Z,99.90
2018-05-23T10:02:41.559Z,99.90
2018-05-23T10:05:09.882Z,99.90
2018-05-23T10:07:37.475Z,99.90
2018-05-23T10:10:04.991Z,99.90
2018-05-23T10:12:32.521Z,99.90
2018-05-23T10:15:00.844Z,99.90
2018-05-23T10:17:28.400Z,99.90
2018-05-23T10:19:55.914Z,99.90
2018-05-23T10:22:25.039Z,99.90
2018-05-23T10:24:52.572Z,99.90
2018-05-23T10:27:20.104Z,99.90
2018-05-23T10:29:47.656Z,99.90
2018-05-23T10:32:15.187Z,99.90
2018-05-23T10:34:42.742Z,99.90
2018-05-23T10:37:10.407Z,99.90
2018-05-23T10:39:37.943Z,99.90
2018-05-23T10:42:05.508Z,99.90
2018-05-23T10:44:33.067Z,99.80
2018-05-23T10:47:00.586Z,99.60
2018-05-23T10:49:28.883Z,99.10
2018-05-23T10:51:56.627Z,99.10
2018-05-23T10:54:25.021Z,98.50
2018-05-23T10:56:53.448Z,99.00
2018-05-23T10:59:21.020Z,98.90
2018-05-23T11:01:48.657Z,98.40
2018-05-23T11:04:16.172Z,97.20
2018-05-23T11:06:44.595Z,97.10
2018-05-23T11:09:12.151Z,97.10
2018-05-23T11:11:39.698Z,96.70
2018-05-23T11:14:07.240Z,96.40
2018-05-23T11:16:34.763Z,96.80
2018-05-23T11:19:02.282Z,95.30
2018-05-23T11:21:29.848Z,95.10
2018-05-23T11:23:57.387Z,94.90
2018-05-23T11:26:24.925Z,95.30
2018-05-23T11:28:52.528Z,94.90
2018-05-23T11:31:20.066Z,94.50
2018-05-23T11:33:47.643Z,94.60
2018-05-23T11:36:15.224Z,95.00
2018-05-23T11:38:42.732Z,94.10
2018-05-23T11:41:10.308Z,93.90
2018-05-23T11:43:37.888Z,93.60
2018-05-23T11:46:05.422Z,93.90
2018-05-23T11:48:33.002Z,94.00
2018-05-23T11:51:00.664Z,93.50
2018-05-23T11:53:28.211Z,93.80
2018-05-23T11:55:55.750Z,93.80
2018-05-23T11:58:23.332Z,93.20
2018-05-23T12:00:50.871Z,92.00
2018-05-23T12:03:18.437Z,92.00
2018-05-23T12:05:45.993Z,91.60
2018-05-23T12:08:13.532Z,91.30
2018-05-23T12:10:41.159Z,90.50
2018-05-23T12:13:08.678Z,91.30
2018-05-23T12:15:36.198Z,90.90
2018-05-23T12:18:04.497Z,90.00
2018-05-23T12:20:32.070Z,90.00
2018-05-23T12:22:59.699Z,90.30
2018-05-23T12:25:27.178Z,89.60
2018-05-23T12:27:54.739Z,90.10
2018-05-23T12:30:22.300Z,88.40
2018-05-23T12:32:49.957Z,84.90
2018-05-23T12:35:17.518Z,83.80
2018-05-23T12:37:45.065Z,82.50
2018-05-23T12:40:12.593Z,79.80
2018-05-23T12:42:40.910Z,77.70
2018-05-23T12:45:08.452Z,77.60
2018-05-23T12:47:35.962Z,77.50
2018-05-23T12:50:05.028Z,74.80
2018-05-23T12:52:32.540Z,74.80
2018-05-23T12:55:00.821Z,71.90
2018-05-23T12:57:29.163Z,70.20
2018-05-23T12:59:56.694Z,70.30
2018-05-23T13:02:24.214Z,70.00
2018-05-23T13:04:52.530Z,69.80
2018-05-23T13:07:20.090Z,69.70
2018-05-23T13:09:47.625Z,68.30
2018-05-23T13:12:15.199Z,67.80
2018-05-23T13:14:42.757Z,68.10
2018-05-23T13:17:10.269Z,65.20
2018-05-23T13:19:39.712Z,63.60
2018-05-23T13:22:07.252Z,63.60
2018-05-23T13:24:34.835Z,64.30
2018-05-23T13:27:02.532Z,62.90
2018-05-23T13:29:30.160Z,62.20
2018-05-23T13:31:58.551Z,61.50
2018-05-23T13:34:26.215Z,60.30
2018-05-23T13:36:53.757Z,59.50
2018-05-23T13:39:21.286Z,58.90
2018-05-23T13:41:49.590Z,59.60
2018-05-23T13:44:17.264Z,59.60
2018-05-23T13:46:44.844Z,58.20
2018-05-23T13:49:12.393Z,56.90
2018-05-23T13:51:39.925Z,56.40
2018-05-23T13:54:07.459Z,57.20
2018-05-23T13:56:35.147Z,56.60
2018-05-23T13:59:02.679Z,57.10
2018-05-23T14:01:30.266Z,55.30
2018-05-23T14:03:57.818Z,53.30
2018-05-23T14:06:25.393Z,54.20
2018-05-23T14:08:52.937Z,54.50
2018-05-23T14:11:20.497Z,53.70
2018-05-23T14:13:48.024Z,52.90
2018-05-23T14:16:16.337Z,51.90
2018-05-23T14:18:43.899Z,51.90
2018-05-23T14:21:11.459Z,51.90
2018-05-23T14:23:39.007Z,51.20
2018-05-23T14:26:06.636Z,51.90
2018-05-23T14:28:34.948Z,51.00
2018-05-23T14:31:02.484Z,51.00
2018-05-23T14:33:30.061Z,50.90
2018-05-23T14:35:57.591Z,51.80
2018-05-23T14:38:25.186Z,51.70
2018-05-23T14:40:52.843Z,51.40
2018-05-23T14:43:20.419Z,52.10
2018-05-23T14:45:47.912Z,50.60
2018-05-23T14:48:15.481Z,50.10
2018-05-23T14:50:43.795Z,50.50
2018-05-23T14:53:12.122Z,50.40
2018-05-23T14:55:39.667Z,50.40
2018-05-23T14:58:07.192Z,50.40
2018-05-23T15:00:34.752Z,50.30
2018-05-23T15:03:02.684Z,50.10
2018-05-23T15:05:30.227Z,49.70
2018-05-23T15:07:58.513Z,49.70
2018-05-23T15:10:26.824Z,49.50
2018-05-23T15:12:54.342Z,49.40
2018-05-23T15:15:22.672Z,49.80
2018-05-23T15:17:50.222Z,49.80
2018-05-23T15:20:17.876Z,49.80
2018-05-23T15:22:45.393Z,49.60
2018-05-23T15:25:12.982Z,51.10
2018-05-23T15:27:40.518Z,52.10
2018-05-23T15:30:08.846Z,51.50
2018-05-23T15:32:36.420Z,51.40
2018-05-23T15:35:04.021Z,51.40
2018-05-23T15:37:31.624Z,50.70
2018-05-23T15:39:59.180Z,52.40
2018-05-23T15:42:26.735Z,53.00
2018-05-23T15:44:54.301Z,53.20
2018-05-23T15:47:21.842Z,53.90
2018-05-23T15:49:49.404Z,53.70
2018-05-23T15:52:16.924Z,55.70
2018-05-23T15:54:45.353Z,55.60
2018-05-23T15:57:12.934Z,55.50
2018-05-23T15:59:40.560Z,55.00
2018-05-23T16:02:08.076Z,55.80
2018-05-23T16:04:36.535Z,56.00
2018-05-23T16:07:04.160Z,55.90
2018-05-23T16:09:31.693Z,55.20
2018-05-23T16:11:59.270Z,54.60
2018-05-23T16:14:26.792Z,54.10
2018-05-23T16:16:55.081Z,52.80
2018-05-23T16:19:23.493Z,52.40
2018-05-23T16:21:51.053Z,52.20
2018-05-23T16:24:18.594Z,51.80
2018-05-23T16:26:46.181Z,52.20
2018-05-23T16:29:13.697Z,51.10
2018-05-23T16:31:41.232Z,51.60
2018-05-23T16:34:09.551Z,50.00
2018-05-23T16:36:37.068Z,50.00
2018-05-23T16:39:05.381Z,50.50
2018-05-23T16:41:32.938Z,50.50
2018-05-23T16:44:00.501Z,51.40
2018-05-23T16:46:28.266Z,50.90
2018-05-23T16:48:55.837Z,49.70
2018-05-23T16:51:23.358Z,50.30
2018-05-23T16:53:51.652Z,47.80
2018-05-23T16:56:19.212Z,47.70
2018-05-23T16:58:46.743Z,48.50
2018-05-23T17:01:15.946Z,48.30
2018-05-23T17:03:44.304Z,48.30
2018-05-23T17:06:11.838Z,48.30
2018-05-23T17:08:39.396Z,49.20
2018-05-23T17:11:07.352Z,47.80
2018-05-23T17:13:34.873Z,48.80
2018-05-23T17:16:03.153Z,48.50
2018-05-23T17:18:30.728Z,48.40
2018-05-23T17:20:58.307Z,49.10
2018-05-23T17:23:25.848Z,47.80
2018-05-23T17:25:53.511Z,48.50
2018-05-23T17:28:21.048Z,49.10
2018-05-23T17:30:49.423Z,48.20
2018-05-23T17:33:17.003Z,48.20
2018-05-23T17:35:44.541Z,48.00
2018-05-23T17:38:12.851Z,48.00
2018-05-23T17:40:40.706Z,47.80
2018-05-23T17:43:08.248Z,47.30
2018-05-23T17:45:35.789Z,46.90
2018-05-23T17:48:04.114Z,47.80
2018-05-23T17:50:31.729Z,47.60
2018-05-23T17:53:00.025Z,47.00
2018-05-23T17:55:27.595Z,46.90
2018-05-23T17:57:55.256Z,46.30
2018-05-23T18:00:22.791Z,47.20
2018-05-23T18:02:51.143Z,48.00
2018-05-23T18:05:21.275Z,48.00
2018-05-23T18:07:48.856Z,48.20
2018-05-23T18:10:16.431Z,48.50
2018-05-23T18:12:43.956Z,48.90
2018-05-23T18:15:12.263Z,51.50
2018-05-23T18:17:39.843Z,51.40
2018-05-23T18:20:07.702Z,52.90
2018-05-23T18:22:35.252Z,53.70
2018-05-23T18:25:05.332Z,53.60
2018-05-23T18:27:33.072Z,54.80
2018-05-23T18:30:00.594Z,54.30
2018-05-23T18:32:28.143Z,53.70
2018-05-23T18:34:55.662Z,55.10
2018-05-23T18:37:23.977Z,54.10
2018-05-23T18:39:51.547Z,54.00
2018-05-23T18:42:19.059Z,53.90
2018-05-23T18:44:46.670Z,54.60
2018-05-23T18:47:14.245Z,55.40
2018-05-23T18:49:41.889Z,55.00
2018-05-23T18:52:09.453Z,55.20
2018-05-23T18:54:37.026Z,54.90
2018-05-23T18:57:04.643Z,55.10
2018-05-23T18:59:32.895Z,56.50
2018-05-23T19:02:01.321Z,57.20
2018-05-23T19:04:28.773Z,57.10
2018-05-23T19:06:56.291Z,58.70
2018-05-23T19:09:24.597Z,59.30
2018-05-23T19:11:52.119Z,59.20
2018-05-23T19:14:20.406Z,60.00
2018-05-23T19:16:48.709Z,60.10
2018-05-23T19:19:16.235Z,60.00
2018-05-23T19:21:44.535Z,61.70
2018-05-23T19:24:12.135Z,61.50
2018-05-23T19:26:39.686Z,62.80
2018-05-23T19:29:07.255Z,64.00
2018-05-23T19:31:34.887Z,64.90
2018-05-23T19:34:02.440Z,67.20
2018-05-23T19:36:29.996Z,66.40
2018-05-23T19:38:57.594Z,66.70
2018-05-23T19:41:25.967Z,68.40
2018-05-23T19:43:53.537Z,68.30
2018-05-23T19:46:22.117Z,68.40
2018-05-23T19:48:49.702Z,68.30
2018-05-23T19:51:18.235Z,70.70
2018-05-23T19:53:45.906Z,70.70
2018-05-23T19:56:13.804Z,70.80
2018-05-23T19:58:42.200Z,69.30
2018-05-23T20:01:10.533Z,69.00
2018-05-23T20:03:38.100Z,68.90
2018-05-23T20:06:05.638Z,69.90
2018-05-23T20:08:33.206Z,69.70
2018-05-23T20:11:00.729Z,70.00
2018-05-23T20:13:28.310Z,68.80
2018-05-23T20:15:55.980Z,70.00
2018-05-23T20:18:23.512Z,70.00
2018-05-23T20:20:51.060Z,70.20
2018-05-23T20:23:18.634Z,69.90
2018-05-23T20:25:46.173Z,70.40
2018-05-23T20:28:13.698Z,71.30
2018-05-23T20:30:41.256Z,71.50
2018-05-23T20:33:09.179Z,71.50
2018-05-23T20:35:36.698Z,72.90
2018-05-23T20:38:05.148Z,72.20
2018-05-23T20:40:32.687Z,72.00
2018-05-23T20:43:00.238Z,71.70
2018-05-23T20:45:27.791Z,72.80
2018-05-23T20:47:55.353Z,74.20
2018-05-23T20:50:22.917Z,73.70
2018-05-23T20:52:50.482Z,73.30
2018-05-23T20:55:18.050Z,73.30
2018-05-23T20:57:45.583Z,75.10
2018-05-23T21:00:13.128Z,74.90
2018-05-23T21:02:40.725Z,75.30
2018-05-23T21:05:08.316Z,76.20
2018-05-23T21:07:35.927Z,75.30
2018-05-23T21:10:03.497Z,76.10
2018-05-23T21:12:31.013Z,75.60
2018-05-23T21:14:59.427Z,75.30
2018-05-23T21:17:26.954Z,75.20
2018-05-23T21:19:54.531Z,74.80
2018-05-23T21:22:22.069Z,75.60
2018-05-23T21:24:50.379Z,75.80
2018-05-23T21:27:17.903Z,75.80
2018-05-23T21:29:46.314Z,76.30
2018-05-23T21:32:15.420Z,76.20
2018-05-23T21:34:42.962Z,76.90
2018-05-23T21:37:10.533Z,77.20
2018-05-23T21:39:38.060Z,76.90
2018-05-23T21:42:05.595Z,78.10
2018-05-23T21:44:33.917Z,78.30
2018-05-23T21:47:01.438Z,78.10
2018-05-23T21:49:29.761Z,77.70
2018-05-23T21:51:57.326Z,77.60
2018-05-23T21:54:24.881Z,77.40
2018-05-23T21:56:52.440Z,77.80
2018-05-23T21:59:19.993Z,78.00
2018-05-23T22:01:47.517Z,78.10
2018-05-23T22:04:15.044Z,78.80
2018-05-23T22:06:42.610Z,79.40
2018-05-23T22:09:10.140Z,79.60
2018-05-23T22:11:37.819Z,79.60
2018-05-23T22:14:05.434Z,79.80
2018-05-23T22:16:32.992Z,80.70
2018-05-23T22:19:00.550Z,80.70
2018-05-23T22:21:28.097Z,81.20
2018-05-23T22:23:55.638Z,81.40
2018-05-23T22:26:23.914Z,82.30
2018-05-23T22:28:52.246Z,83.10
2018-05-23T22:31:19.777Z,82.90
2018-05-23T22:33:47.302Z,83.20
2018-05-23T22:36:15.724Z,84.30
2018-05-23T22:38:43.491Z,84.20
2018-05-23T22:41:10.997Z,84.30
2018-05-23T22:43:39.443Z,84.50
2018-05-23T22:46:06.981Z,84.40
2018-05-23T22:48:34.500Z,84.70
2018-05-23T22:51:02.838Z,85.30
2018-05-23T22:53:30.371Z,85.10
2018-05-23T22:55:58.028Z,84.90
2018-05-23T22:58:25.585Z,85.70
2018-05-23T23:00:53.103Z,85.90
2018-05-23T23:03:20.614Z,86.10
2018-05-23T23:05:48.274Z,86.70
2018-05-23T23:08:15.781Z,86.60
2018-05-23T23:10:43.393Z,87.20
2018-05-23T23:13:10.947Z,86.70
2018-05-23T23:15:38.475Z,87.20
2018-05-23T23:18:05.993Z,87.60
2018-05-23T23:20:33.538Z,88.40
2018-05-23T23:23:01.050Z,88.90
2018-05-23T23:25:29.321Z,90.00
2018-05-23T23:27:57.647Z,89.60
2018-05-23T23:30:25.593Z,89.60
2018-05-23T23:32:53.117Z,90.10
2018-05-23T23:35:21.940Z,90.10
2018-05-23T23:37:49.511Z,90.00
2018-05-23T23:40:17.022Z,90.30
2018-05-23T23:42:45.432Z,90.60
2018-05-23T23:45:12.960Z,90.60
2018-05-23T23:47:41.257Z,90.90
2018-05-23T23:50:08.804Z,90.90
2018-05-23T23:52:36.321Z,91.30
2018-05-23T23:55:03.842Z,91.40
2018-05-23T23:57:31.415Z,91.30
2018-05-23T23:59:58.957Z,91.40
